Albany, Wisconsin
Current Conditions -  °F | °C
As of 9:55 PM on Saturday 20 Dec 2014 (Local Time) from KEFT Reporting Station
Overcast Overcast  
Wind Chill: 24°   Ceiling: 1900
Heat Index: 30°   Visibility: 7mi
Dew Point: 28°   Wind: 6mph
Humidity: 93%   Direction: 160°SSE
Pressure: 30.19"   Gusts: NA
Location:  42.71°N, 89.44°W
Report Text: KEFT 210355Z AUTO 16005KT 7SM SCT012 BKN019 OVC040 M01/M02 A3019 RMK AO2
Loading
Personal Weather Stations






























Interactive Weather Map New forecast layout! Learn more

10-Day Weather Forecast

Advertisements
Track Severe Weather on mobile